sensor_id;sensor_type;location;lat;lon;timestamp;P1;durP1;ratioP1;P2;durP2;ratioP2
8716;SDS011;4395;48.554;8.820;2023-06-26T00:00:53;7.30;;;6.60;;
8716;SDS011;4395;48.554;8.820;2023-06-26T00:02:56;9.33;;;8.50;;
8716;SDS011;4395;48.554;8.820;2023-06-26T00:04:59;9.03;;;8.13;;
8716;SDS011;4395;48.554;8.820;2023-06-26T00:07:03;9.07;;;8.17;;
8716;SDS011;4395;48.554;8.820;2023-06-26T00:09:06;8.33;;;7.53;;
8716;SDS011;4395;48.554;8.820;2023-06-26T00:11:11;8.13;;;7.33;;
8716;SDS011;4395;48.554;8.820;2023-06-26T00:13:14;7.60;;;6.90;;
8716;SDS011;4395;48.554;8.820;2023-06-26T00:15:16;7.87;;;7.17;;
8716;SDS011;4395;48.554;8.820;2023-06-26T00:17:20;7.73;;;6.93;;
8716;SDS011;4395;48.554;8.820;2023-06-26T00:19:24;8.50;;;7.43;;
8716;SDS011;4395;48.554;8.820;2023-06-26T00:21:27;8.33;;;7.47;;
8716;SDS011;4395;48.554;8.820;2023-06-26T00:23:29;7.60;;;6.90;;
8716;SDS011;4395;48.554;8.820;2023-06-26T00:25:34;7.80;;;7.10;;
8716;SDS011;4395;48.554;8.820;2023-06-26T00:27:38;8.00;;;7.20;;
8716;SDS011;4395;48.554;8.820;2023-06-26T00:29:41;8.50;;;7.70;;
8716;SDS011;4395;48.554;8.820;2023-06-26T00:31:44;8.50;;;7.80;;
8716;SDS011;4395;48.554;8.820;2023-06-26T00:33:47;8.50;;;7.70;;
8716;SDS011;4395;48.554;8.820;2023-06-26T00:35:50;7.93;;;7.23;;
8716;SDS011;4395;48.554;8.820;2023-06-26T00:37:53;7.90;;;7.10;;
8716;SDS011;4395;48.554;8.820;2023-06-26T00:39:56;8.60;;;7.13;;
8716;SDS011;4395;48.554;8.820;2023-06-26T00:41:59;7.50;;;6.80;;
8716;SDS011;4395;48.554;8.820;2023-06-26T00:44:03;7.33;;;6.70;;
8716;SDS011;4395;48.554;8.820;2023-06-26T00:46:06;7.87;;;7.07;;
8716;SDS011;4395;48.554;8.820;2023-06-26T00:48:11;7.13;;;6.43;;
8716;SDS011;4395;48.554;8.820;2023-06-26T00:50:14;6.80;;;6.10;;
8716;SDS011;4395;48.554;8.820;2023-06-26T00:52:19;6.93;;;6.23;;
8716;SDS011;4395;48.554;8.820;2023-06-26T00:54:22;7.27;;;6.57;;
8716;SDS011;4395;48.554;8.820;2023-06-26T00:56:25;7.63;;;6.93;;
8716;SDS011;4395;48.554;8.820;2023-06-26T00:58:31;7.13;;;6.43;;
8716;SDS011;4395;48.554;8.820;2023-06-26T01:00:35;6.90;;;6.30;;
8716;SDS011;4395;48.554;8.820;2023-06-26T01:02:38;7.50;;;6.80;;
8716;SDS011;4395;48.554;8.820;2023-06-26T01:04:41;7.73;;;6.87;;
8716;SDS011;4395;48.554;8.820;2023-06-26T01:06:48;8.43;;;6.60;;
8716;SDS011;4395;48.554;8.820;2023-06-26T01:08:53;7.27;;;6.50;;
8716;SDS011;4395;48.554;8.820;2023-06-26T01:10:56;7.73;;;7.00;;
8716;SDS011;4395;48.554;8.820;2023-06-26T01:13:01;7.93;;;7.23;;
8716;SDS011;4395;48.554;8.820;2023-06-26T01:15:04;7.13;;;6.47;;
8716;SDS011;4395;48.554;8.820;2023-06-26T01:17:09;7.57;;;6.87;;
8716;SDS011;4395;48.554;8.820;2023-06-26T01:19:17;7.30;;;6.60;;
8716;SDS011;4395;48.554;8.820;2023-06-26T01:21:27;7.40;;;6.70;;
8716;SDS011;4395;48.554;8.820;2023-06-26T01:23:35;8.27;;;7.47;;
8716;SDS011;4395;48.554;8.820;2023-06-26T01:25:47;9.17;;;8.27;;
8716;SDS011;4395;48.554;8.820;2023-06-26T01:27:59;7.93;;;7.23;;
8716;SDS011;4395;48.554;8.820;2023-06-26T01:30:04;8.80;;;8.00;;
8716;SDS011;4395;48.554;8.820;2023-06-26T01:32:09;9.93;;;8.70;;
8716;SDS011;4395;48.554;8.820;2023-06-26T01:34:12;8.87;;;7.83;;
8716;SDS011;4395;48.554;8.820;2023-06-26T01:36:16;8.53;;;7.73;;
8716;SDS011;4395;48.554;8.820;2023-06-26T01:38:20;8.73;;;7.93;;
8716;SDS011;4395;48.554;8.820;2023-06-26T01:40:24;8.33;;;7.30;;
8716;SDS011;4395;48.554;8.820;2023-06-26T01:42:27;7.80;;;7.00;;
8716;SDS011;4395;48.554;8.820;2023-06-26T01:44:32;7.90;;;7.10;;
8716;SDS011;4395;48.554;8.820;2023-06-26T01:46:42;7.67;;;6.97;;
8716;SDS011;4395;48.554;8.820;2023-06-26T01:48:52;8.87;;;7.43;;
8716;SDS011;4395;48.554;8.820;2023-06-26T01:51:01;7.90;;;7.20;;
8716;SDS011;4395;48.554;8.820;2023-06-26T01:53:06;8.03;;;7.23;;
8716;SDS011;4395;48.554;8.820;2023-06-26T01:55:15;8.53;;;7.67;;
8716;SDS011;4395;48.554;8.820;2023-06-26T01:57:24;8.33;;;7.50;;
8716;SDS011;4395;48.554;8.820;2023-06-26T01:59:29;7.47;;;6.80;;
8716;SDS011;4395;48.554;8.820;2023-06-26T02:01:36;7.07;;;6.47;;
8716;SDS011;4395;48.554;8.820;2023-06-26T02:03:39;9.33;;;6.57;;
8716;SDS011;4395;48.554;8.820;2023-06-26T02:05:42;7.10;;;6.50;;
8716;SDS011;4395;48.554;8.820;2023-06-26T02:07:46;9.03;;;7.40;;
8716;SDS011;4395;48.554;8.820;2023-06-26T02:09:49;7.97;;;7.17;;
8716;SDS011;4395;48.554;8.820;2023-06-26T02:11:51;7.53;;;6.83;;
8716;SDS011;4395;48.554;8.820;2023-06-26T02:13:54;7.80;;;7.07;;
8716;SDS011;4395;48.554;8.820;2023-06-26T02:15:58;8.00;;;7.20;;
8716;SDS011;4395;48.554;8.820;2023-06-26T02:18:01;6.80;;;6.20;;
8716;SDS011;4395;48.554;8.820;2023-06-26T02:20:04;8.10;;;7.30;;
8716;SDS011;4395;48.554;8.820;2023-06-26T02:22:10;7.17;;;6.53;;
8716;SDS011;4395;48.554;8.820;2023-06-26T02:24:14;7.30;;;6.70;;
8716;SDS011;4395;48.554;8.820;2023-06-26T02:26:17;7.73;;;6.93;;
8716;SDS011;4395;48.554;8.820;2023-06-26T02:28:20;7.73;;;7.03;;
8716;SDS011;4395;48.554;8.820;2023-06-26T02:30:23;7.30;;;6.63;;
8716;SDS011;4395;48.554;8.820;2023-06-26T02:32:27;7.10;;;6.50;;
8716;SDS011;4395;48.554;8.820;2023-06-26T02:34:30;8.37;;;7.57;;
8716;SDS011;4395;48.554;8.820;2023-06-26T02:36:35;8.00;;;7.20;;
8716;SDS011;4395;48.554;8.820;2023-06-26T02:38:39;8.03;;;7.33;;
8716;SDS011;4395;48.554;8.820;2023-06-26T02:40:42;7.43;;;6.73;;
8716;SDS011;4395;48.554;8.820;2023-06-26T02:42:46;8.23;;;6.97;;
8716;SDS011;4395;48.554;8.820;2023-06-26T02:44:49;7.17;;;6.47;;
8716;SDS011;4395;48.554;8.820;2023-06-26T02:46:52;7.10;;;6.40;;
8716;SDS011;4395;48.554;8.820;2023-06-26T02:48:56;7.33;;;6.67;;
8716;SDS011;4395;48.554;8.820;2023-06-26T02:51:00;7.80;;;7.00;;
8716;SDS011;4395;48.554;8.820;2023-06-26T02:53:05;7.53;;;6.73;;
8716;SDS011;4395;48.554;8.820;2023-06-26T02:55:11;8.23;;;7.43;;
8716;SDS011;4395;48.554;8.820;2023-06-26T02:57:14;8.80;;;7.23;;
8716;SDS011;4395;48.554;8.820;2023-06-26T02:59:18;8.03;;;7.17;;
8716;SDS011;4395;48.554;8.820;2023-06-26T03:01:21;7.67;;;6.87;;
8716;SDS011;4395;48.554;8.820;2023-06-26T03:03:24;8.17;;;6.97;;
8716;SDS011;4395;48.554;8.820;2023-06-26T03:05:29;7.27;;;6.57;;
8716;SDS011;4395;48.554;8.820;2023-06-26T03:07:33;7.97;;;7.00;;
8716;SDS011;4395;48.554;8.820;2023-06-26T03:09:36;8.07;;;7.27;;
8716;SDS011;4395;48.554;8.820;2023-06-26T03:11:39;8.33;;;7.53;;
8716;SDS011;4395;48.554;8.820;2023-06-26T03:13:42;7.70;;;7.10;;
8716;SDS011;4395;48.554;8.820;2023-06-26T03:15:45;9.50;;;7.23;;
8716;SDS011;4395;48.554;8.820;2023-06-26T03:17:48;8.80;;;8.00;;
8716;SDS011;4395;48.554;8.820;2023-06-26T03:19:57;9.40;;;7.70;;
8716;SDS011;4395;48.554;8.820;2023-06-26T03:22:09;7.77;;;7.00;;
8716;SDS011;4395;48.554;8.820;2023-06-26T03:24:12;8.10;;;7.30;;
8716;SDS011;4395;48.554;8.820;2023-06-26T03:26:15;7.37;;;6.57;;
8716;SDS011;4395;48.554;8.820;2023-06-26T03:28:20;7.83;;;7.07;;
8716;SDS011;4395;48.554;8.820;2023-06-26T03:30:23;7.97;;;7.00;;
8716;SDS011;4395;48.554;8.820;2023-06-26T03:32:29;8.03;;;7.23;;
8716;SDS011;4395;48.554;8.820;2023-06-26T03:34:31;8.03;;;7.20;;
8716;SDS011;4395;48.554;8.820;2023-06-26T03:36:35;7.60;;;6.87;;
8716;SDS011;4395;48.554;8.820;2023-06-26T03:38:39;7.63;;;6.93;;
8716;SDS011;4395;48.554;8.820;2023-06-26T03:40:43;7.43;;;6.73;;
8716;SDS011;4395;48.554;8.820;2023-06-26T03:42:46;7.90;;;7.20;;
8716;SDS011;4395;48.554;8.820;2023-06-26T03:44:49;9.20;;;7.13;;
8716;SDS011;4395;48.554;8.820;2023-06-26T03:46:53;8.03;;;7.23;;
8716;SDS011;4395;48.554;8.820;2023-06-26T03:48:57;8.33;;;7.40;;
8716;SDS011;4395;48.554;8.820;2023-06-26T03:51:00;9.33;;;7.90;;
8716;SDS011;4395;48.554;8.820;2023-06-26T03:53:04;8.27;;;7.33;;
8716;SDS011;4395;48.554;8.820;2023-06-26T03:55:08;8.07;;;7.37;;
8716;SDS011;4395;48.554;8.820;2023-06-26T03:57:11;9.33;;;7.17;;
8716;SDS011;4395;48.554;8.820;2023-06-26T03:59:14;10.10;;;7.63;;
8716;SDS011;4395;48.554;8.820;2023-06-26T04:01:17;8.43;;;7.63;;
8716;SDS011;4395;48.554;8.820;2023-06-26T04:03:23;8.73;;;7.93;;
8716;SDS011;4395;48.554;8.820;2023-06-26T04:05:27;9.20;;;8.20;;
8716;SDS011;4395;48.554;8.820;2023-06-26T04:07:30;9.20;;;7.57;;
8716;SDS011;4395;48.554;8.820;2023-06-26T04:09:34;8.87;;;7.77;;
8716;SDS011;4395;48.554;8.820;2023-06-26T04:11:38;8.30;;;7.37;;
8716;SDS011;4395;48.554;8.820;2023-06-26T04:13:41;8.57;;;7.67;;
8716;SDS011;4395;48.554;8.820;2023-06-26T04:15:44;8.40;;;7.60;;
8716;SDS011;4395;48.554;8.820;2023-06-26T04:17:46;8.80;;;7.70;;
8716;SDS011;4395;48.554;8.820;2023-06-26T04:19:49;8.73;;;7.70;;
8716;SDS011;4395;48.554;8.820;2023-06-26T04:21:52;8.67;;;7.87;;
8716;SDS011;4395;48.554;8.820;2023-06-26T04:23:55;8.50;;;7.60;;
8716;SDS011;4395;48.554;8.820;2023-06-26T04:25:58;8.87;;;7.93;;
8716;SDS011;4395;48.554;8.820;2023-06-26T04:28:02;10.63;;;8.50;;
8716;SDS011;4395;48.554;8.820;2023-06-26T04:30:06;11.70;;;8.20;;
8716;SDS011;4395;48.554;8.820;2023-06-26T04:32:09;13.07;;;10.93;;
8716;SDS011;4395;48.554;8.820;2023-06-26T04:34:12;12.40;;;10.80;;
8716;SDS011;4395;48.554;8.820;2023-06-26T04:36:15;13.57;;;11.37;;
8716;SDS011;4395;48.554;8.820;2023-06-26T04:38:19;11.67;;;10.40;;
8716;SDS011;4395;48.554;8.820;2023-06-26T04:40:23;11.80;;;10.47;;
8716;SDS011;4395;48.554;8.820;2023-06-26T04:42:25;9.27;;;8.37;;
8716;SDS011;4395;48.554;8.820;2023-06-26T04:44:29;9.77;;;8.57;;
8716;SDS011;4395;48.554;8.820;2023-06-26T04:46:32;8.87;;;7.97;;
8716;SDS011;4395;48.554;8.820;2023-06-26T04:48:35;9.80;;;8.10;;
8716;SDS011;4395;48.554;8.820;2023-06-26T04:50:39;9.70;;;8.40;;
8716;SDS011;4395;48.554;8.820;2023-06-26T04:52:42;8.27;;;7.43;;
8716;SDS011;4395;48.554;8.820;2023-06-26T04:54:45;11.03;;;7.63;;
8716;SDS011;4395;48.554;8.820;2023-06-26T04:56:48;8.17;;;7.47;;
8716;SDS011;4395;48.554;8.820;2023-06-26T04:58:51;8.17;;;7.40;;
8716;SDS011;4395;48.554;8.820;2023-06-26T05:00:55;8.17;;;7.47;;
8716;SDS011;4395;48.554;8.820;2023-06-26T05:02:58;7.73;;;6.97;;
8716;SDS011;4395;48.554;8.820;2023-06-26T05:05:02;9.70;;;8.70;;
8716;SDS011;4395;48.554;8.820;2023-06-26T05:07:05;11.97;;;8.50;;
8716;SDS011;4395;48.554;8.820;2023-06-26T05:09:08;11.90;;;9.30;;
8716;SDS011;4395;48.554;8.820;2023-06-26T05:11:12;9.13;;;7.77;;
8716;SDS011;4395;48.554;8.820;2023-06-26T05:13:15;9.53;;;8.00;;
8716;SDS011;4395;48.554;8.820;2023-06-26T05:15:19;8.00;;;7.23;;
8716;SDS011;4395;48.554;8.820;2023-06-26T05:17:23;7.57;;;6.80;;
8716;SDS011;4395;48.554;8.820;2023-06-26T05:19:26;9.67;;;7.30;;
8716;SDS011;4395;48.554;8.820;2023-06-26T05:21:28;8.47;;;7.30;;
8716;SDS011;4395;48.554;8.820;2023-06-26T05:23:32;8.77;;;7.13;;
8716;SDS011;4395;48.554;8.820;2023-06-26T05:25:36;8.67;;;7.43;;
8716;SDS011;4395;48.554;8.820;2023-06-26T05:27:39;9.63;;;7.20;;
8716;SDS011;4395;48.554;8.820;2023-06-26T05:29:42;8.40;;;7.50;;
8716;SDS011;4395;48.554;8.820;2023-06-26T05:31:45;12.60;;;7.43;;
8716;SDS011;4395;48.554;8.820;2023-06-26T05:33:52;10.40;;;6.97;;
8716;SDS011;4395;48.554;8.820;2023-06-26T05:35:58;10.30;;;7.30;;
8716;SDS011;4395;48.554;8.820;2023-06-26T05:38:02;9.70;;;7.23;;
8716;SDS011;4395;48.554;8.820;2023-06-26T05:40:05;10.67;;;7.47;;
8716;SDS011;4395;48.554;8.820;2023-06-26T05:42:10;9.13;;;6.87;;
8716;SDS011;4395;48.554;8.820;2023-06-26T05:44:14;14.93;;;7.53;;
8716;SDS011;4395;48.554;8.820;2023-06-26T05:46:17;10.40;;;7.33;;
8716;SDS011;4395;48.554;8.820;2023-06-26T05:48:20;7.87;;;6.97;;
8716;SDS011;4395;48.554;8.820;2023-06-26T05:50:24;8.90;;;6.70;;
8716;SDS011;4395;48.554;8.820;2023-06-26T05:52:28;7.63;;;6.90;;
8716;SDS011;4395;48.554;8.820;2023-06-26T05:54:32;9.67;;;6.80;;
8716;SDS011;4395;48.554;8.820;2023-06-26T05:56:35;7.77;;;6.97;;
8716;SDS011;4395;48.554;8.820;2023-06-26T05:58:39;7.23;;;6.53;;
8716;SDS011;4395;48.554;8.820;2023-06-26T06:00:45;8.17;;;7.37;;
8716;SDS011;4395;48.554;8.820;2023-06-26T06:02:51;7.63;;;6.90;;
8716;SDS011;4395;48.554;8.820;2023-06-26T06:04:55;7.47;;;6.80;;
8716;SDS011;4395;48.554;8.820;2023-06-26T06:06:59;7.10;;;6.40;;
8716;SDS011;4395;48.554;8.820;2023-06-26T06:09:03;7.30;;;6.53;;
8716;SDS011;4395;48.554;8.820;2023-06-26T06:11:06;6.70;;;6.10;;
8716;SDS011;4395;48.554;8.820;2023-06-26T06:13:08;6.97;;;6.37;;
8716;SDS011;4395;48.554;8.820;2023-06-26T06:15:11;8.00;;;6.10;;
8716;SDS011;4395;48.554;8.820;2023-06-26T06:17:14;6.97;;;6.33;;
8716;SDS011;4395;48.554;8.820;2023-06-26T06:19:19;7.10;;;6.33;;
8716;SDS011;4395;48.554;8.820;2023-06-26T06:21:22;7.13;;;6.43;;
8716;SDS011;4395;48.554;8.820;2023-06-26T06:23:26;7.07;;;6.43;;
8716;SDS011;4395;48.554;8.820;2023-06-26T06:25:29;8.10;;;6.33;;
8716;SDS011;4395;48.554;8.820;2023-06-26T06:27:32;6.50;;;6.00;;
8716;SDS011;4395;48.554;8.820;2023-06-26T06:29:35;6.93;;;6.30;;
8716;SDS011;4395;48.554;8.820;2023-06-26T06:31:38;7.80;;;6.60;;
8716;SDS011;4395;48.554;8.820;2023-06-26T06:33:40;7.20;;;6.10;;
8716;SDS011;4395;48.554;8.820;2023-06-26T06:35:43;7.77;;;6.80;;
8716;SDS011;4395;48.554;8.820;2023-06-26T06:37:46;8.50;;;6.50;;
8716;SDS011;4395;48.554;8.820;2023-06-26T06:39:51;7.57;;;6.67;;
8716;SDS011;4395;48.554;8.820;2023-06-26T06:41:54;7.93;;;6.80;;
8716;SDS011;4395;48.554;8.820;2023-06-26T06:43:57;6.90;;;6.30;;
8716;SDS011;4395;48.554;8.820;2023-06-26T06:45:59;7.57;;;6.30;;
8716;SDS011;4395;48.554;8.820;2023-06-26T06:48:02;7.33;;;6.63;;
8716;SDS011;4395;48.554;8.820;2023-06-26T06:50:05;7.17;;;6.47;;
8716;SDS011;4395;48.554;8.820;2023-06-26T06:52:10;7.30;;;6.70;;
8716;SDS011;4395;48.554;8.820;2023-06-26T06:54:14;7.00;;;6.30;;
8716;SDS011;4395;48.554;8.820;2023-06-26T06:56:19;8.50;;;6.37;;
8716;SDS011;4395;48.554;8.820;2023-06-26T06:58:22;7.10;;;6.50;;
8716;SDS011;4395;48.554;8.820;2023-06-26T07:00:25;7.03;;;6.40;;
8716;SDS011;4395;48.554;8.820;2023-06-26T07:02:28;7.10;;;6.40;;
8716;SDS011;4395;48.554;8.820;2023-06-26T07:04:31;6.60;;;6.00;;
8716;SDS011;4395;48.554;8.820;2023-06-26T07:06:33;6.77;;;5.53;;
8716;SDS011;4395;48.554;8.820;2023-06-26T07:08:36;8.83;;;6.13;;
8716;SDS011;4395;48.554;8.820;2023-06-26T07:10:39;11.20;;;6.50;;
8716;SDS011;4395;48.554;8.820;2023-06-26T07:12:43;6.53;;;5.87;;
8716;SDS011;4395;48.554;8.820;2023-06-26T07:14:46;7.10;;;6.40;;
8716;SDS011;4395;48.554;8.820;2023-06-26T07:16:49;9.53;;;6.00;;
8716;SDS011;4395;48.554;8.820;2023-06-26T07:18:52;10.77;;;5.57;;
8716;SDS011;4395;48.554;8.820;2023-06-26T07:20:56;7.10;;;6.23;;
8716;SDS011;4395;48.554;8.820;2023-06-26T07:22:59;7.10;;;6.50;;
8716;SDS011;4395;48.554;8.820;2023-06-26T07:25:02;6.27;;;5.67;;
8716;SDS011;4395;48.554;8.820;2023-06-26T07:27:06;6.67;;;5.47;;
8716;SDS011;4395;48.554;8.820;2023-06-26T07:29:10;8.33;;;6.13;;
8716;SDS011;4395;48.554;8.820;2023-06-26T07:31:13;8.30;;;5.53;;
8716;SDS011;4395;48.554;8.820;2023-06-26T07:33:15;6.70;;;6.00;;
8716;SDS011;4395;48.554;8.820;2023-06-26T07:35:18;5.87;;;5.40;;
8716;SDS011;4395;48.554;8.820;2023-06-26T07:37:21;5.33;;;4.90;;
8716;SDS011;4395;48.554;8.820;2023-06-26T07:39:24;4.97;;;4.57;;
8716;SDS011;4395;48.554;8.820;2023-06-26T07:41:27;6.60;;;5.50;;
8716;SDS011;4395;48.554;8.820;2023-06-26T07:43:31;5.67;;;5.10;;
8716;SDS011;4395;48.554;8.820;2023-06-26T07:45:35;5.00;;;4.60;;
8716;SDS011;4395;48.554;8.820;2023-06-26T07:47:38;5.17;;;4.70;;
8716;SDS011;4395;48.554;8.820;2023-06-26T07:49:41;5.40;;;5.00;;
8716;SDS011;4395;48.554;8.820;2023-06-26T07:51:44;5.63;;;5.10;;
8716;SDS011;4395;48.554;8.820;2023-06-26T07:53:47;5.87;;;5.23;;
8716;SDS011;4395;48.554;8.820;2023-06-26T07:55:50;5.80;;;5.03;;
8716;SDS011;4395;48.554;8.820;2023-06-26T07:57:53;5.73;;;4.60;;
8716;SDS011;4395;48.554;8.820;2023-06-26T07:59:56;5.90;;;5.40;;
8716;SDS011;4395;48.554;8.820;2023-06-26T08:02:00;5.43;;;4.93;;
8716;SDS011;4395;48.554;8.820;2023-06-26T08:04:03;5.47;;;4.80;;
8716;SDS011;4395;48.554;8.820;2023-06-26T08:06:06;5.30;;;4.90;;
8716;SDS011;4395;48.554;8.820;2023-06-26T08:08:13;5.20;;;4.80;;
8716;SDS011;4395;48.554;8.820;2023-06-26T08:10:15;5.03;;;4.63;;
8716;SDS011;4395;48.554;8.820;2023-06-26T08:12:18;5.30;;;4.90;;
8716;SDS011;4395;48.554;8.820;2023-06-26T08:14:21;5.07;;;4.67;;
8716;SDS011;4395;48.554;8.820;2023-06-26T08:16:25;6.67;;;4.77;;
8716;SDS011;4395;48.554;8.820;2023-06-26T08:18:29;6.37;;;5.00;;
8716;SDS011;4395;48.554;8.820;2023-06-26T08:20:32;5.13;;;4.73;;
8716;SDS011;4395;48.554;8.820;2023-06-26T08:22:37;5.50;;;5.00;;
8716;SDS011;4395;48.554;8.820;2023-06-26T08:24:40;5.40;;;4.90;;
8716;SDS011;4395;48.554;8.820;2023-06-26T08:26:44;6.27;;;5.10;;
8716;SDS011;4395;48.554;8.820;2023-06-26T08:28:47;8.07;;;5.30;;
8716;SDS011;4395;48.554;8.820;2023-06-26T08:30:50;5.80;;;5.23;;
8716;SDS011;4395;48.554;8.820;2023-06-26T08:32:52;5.70;;;5.20;;
8716;SDS011;4395;48.554;8.820;2023-06-26T08:34:57;6.00;;;5.30;;
8716;SDS011;4395;48.554;8.820;2023-06-26T08:37:00;5.93;;;5.43;;
8716;SDS011;4395;48.554;8.820;2023-06-26T08:39:04;4.97;;;4.57;;
8716;SDS011;4395;48.554;8.820;2023-06-26T08:41:07;5.97;;;5.00;;
8716;SDS011;4395;48.554;8.820;2023-06-26T08:43:10;5.53;;;5.10;;
8716;SDS011;4395;48.554;8.820;2023-06-26T08:45:13;6.10;;;5.33;;
8716;SDS011;4395;48.554;8.820;2023-06-26T08:47:16;5.17;;;4.77;;
8716;SDS011;4395;48.554;8.820;2023-06-26T08:49:25;6.00;;;5.50;;
8716;SDS011;4395;48.554;8.820;2023-06-26T08:51:32;6.67;;;4.73;;
8716;SDS011;4395;48.554;8.820;2023-06-26T08:53:40;5.53;;;5.03;;
8716;SDS011;4395;48.554;8.820;2023-06-26T08:55:51;5.77;;;5.20;;
8716;SDS011;4395;48.554;8.820;2023-06-26T08:57:55;5.83;;;4.97;;
8716;SDS011;4395;48.554;8.820;2023-06-26T08:59:58;7.93;;;5.70;;
8716;SDS011;4395;48.554;8.820;2023-06-26T09:02:01;5.67;;;5.10;;
8716;SDS011;4395;48.554;8.820;2023-06-26T09:04:05;5.50;;;5.10;;
8716;SDS011;4395;48.554;8.820;2023-06-26T09:06:08;5.23;;;4.80;;
8716;SDS011;4395;48.554;8.820;2023-06-26T09:08:13;7.17;;;5.63;;
8716;SDS011;4395;48.554;8.820;2023-06-26T09:10:16;6.70;;;5.40;;
8716;SDS011;4395;48.554;8.820;2023-06-26T09:12:19;5.83;;;5.33;;
8716;SDS011;4395;48.554;8.820;2023-06-26T09:14:22;6.90;;;5.13;;
8716;SDS011;4395;48.554;8.820;2023-06-26T09:16:27;5.60;;;5.10;;
8716;SDS011;4395;48.554;8.820;2023-06-26T09:18:30;5.37;;;4.97;;
8716;SDS011;4395;48.554;8.820;2023-06-26T09:20:35;6.60;;;5.47;;
8716;SDS011;4395;48.554;8.820;2023-06-26T09:22:40;5.60;;;5.10;;
8716;SDS011;4395;48.554;8.820;2023-06-26T09:24:45;5.93;;;5.33;;
8716;SDS011;4395;48.554;8.820;2023-06-26T09:26:48;5.87;;;5.47;;
8716;SDS011;4395;48.554;8.820;2023-06-26T09:28:53;5.83;;;5.23;;
8716;SDS011;4395;48.554;8.820;2023-06-26T09:30:59;5.73;;;5.20;;
8716;SDS011;4395;48.554;8.820;2023-06-26T09:33:13;5.57;;;5.10;;
8716;SDS011;4395;48.554;8.820;2023-06-26T09:35:17;5.80;;;5.30;;
8716;SDS011;4395;48.554;8.820;2023-06-26T09:37:20;5.83;;;5.33;;
8716;SDS011;4395;48.554;8.820;2023-06-26T09:39:24;5.50;;;5.03;;
8716;SDS011;4395;48.554;8.820;2023-06-26T09:41:28;5.90;;;5.40;;
8716;SDS011;4395;48.554;8.820;2023-06-26T09:43:32;5.50;;;5.07;;
8716;SDS011;4395;48.554;8.820;2023-06-26T09:45:35;5.93;;;5.43;;
8716;SDS011;4395;48.554;8.820;2023-06-26T09:47:38;6.27;;;5.63;;
8716;SDS011;4395;48.554;8.820;2023-06-26T09:49:46;6.07;;;5.47;;
8716;SDS011;4395;48.554;8.820;2023-06-26T09:51:49;6.47;;;5.60;;
8716;SDS011;4395;48.554;8.820;2023-06-26T09:53:52;7.17;;;5.43;;
8716;SDS011;4395;48.554;8.820;2023-06-26T09:55:55;6.10;;;5.60;;
8716;SDS011;4395;48.554;8.820;2023-06-26T09:57:59;6.07;;;5.47;;
8716;SDS011;4395;48.554;8.820;2023-06-26T10:00:08;5.77;;;5.33;;
8716;SDS011;4395;48.554;8.820;2023-06-26T10:02:13;6.40;;;5.90;;
8716;SDS011;4395;48.554;8.820;2023-06-26T10:04:16;6.27;;;5.67;;
8716;SDS011;4395;48.554;8.820;2023-06-26T10:06:24;6.20;;;5.57;;
8716;SDS011;4395;48.554;8.820;2023-06-26T10:08:29;6.83;;;5.47;;
8716;SDS011;4395;48.554;8.820;2023-06-26T10:10:34;6.83;;;6.33;;
8716;SDS011;4395;48.554;8.820;2023-06-26T10:12:40;6.17;;;5.57;;
8716;SDS011;4395;48.554;8.820;2023-06-26T10:14:44;6.13;;;5.53;;
8716;SDS011;4395;48.554;8.820;2023-06-26T10:16:48;6.27;;;5.67;;
8716;SDS011;4395;48.554;8.820;2023-06-26T10:18:53;6.67;;;6.07;;
8716;SDS011;4395;48.554;8.820;2023-06-26T10:20:58;6.47;;;5.83;;
8716;SDS011;4395;48.554;8.820;2023-06-26T10:23:04;6.30;;;5.80;;
8716;SDS011;4395;48.554;8.820;2023-06-26T10:25:09;8.90;;;5.90;;
8716;SDS011;4395;48.554;8.820;2023-06-26T10:27:15;6.73;;;6.13;;
8716;SDS011;4395;48.554;8.820;2023-06-26T10:29:21;6.57;;;5.83;;
8716;SDS011;4395;48.554;8.820;2023-06-26T10:31:27;6.40;;;5.83;;
8716;SDS011;4395;48.554;8.820;2023-06-26T10:33:32;6.63;;;6.00;;
8716;SDS011;4395;48.554;8.820;2023-06-26T10:35:40;6.87;;;6.17;;
8716;SDS011;4395;48.554;8.820;2023-06-26T10:37:45;6.87;;;6.27;;
8716;SDS011;4395;48.554;8.820;2023-06-26T10:39:49;7.00;;;6.30;;
8716;SDS011;4395;48.554;8.820;2023-06-26T10:41:54;6.60;;;6.10;;
8716;SDS011;4395;48.554;8.820;2023-06-26T10:44:06;10.33;;;7.03;;
8716;SDS011;4395;48.554;8.820;2023-06-26T10:46:12;7.17;;;6.57;;
8716;SDS011;4395;48.554;8.820;2023-06-26T10:48:20;6.90;;;6.20;;
8716;SDS011;4395;48.554;8.820;2023-06-26T10:50:25;10.90;;;6.20;;
8716;SDS011;4395;48.554;8.820;2023-06-26T10:52:29;7.07;;;6.37;;
8716;SDS011;4395;48.554;8.820;2023-06-26T10:54:32;8.47;;;6.83;;
8716;SDS011;4395;48.554;8.820;2023-06-26T10:56:41;6.43;;;5.80;;
8716;SDS011;4395;48.554;8.820;2023-06-26T10:58:45;6.90;;;6.30;;
8716;SDS011;4395;48.554;8.820;2023-06-26T11:00:49;6.93;;;6.33;;
8716;SDS011;4395;48.554;8.820;2023-06-26T11:02:52;7.30;;;6.70;;
8716;SDS011;4395;48.554;8.820;2023-06-26T11:04:56;6.80;;;6.20;;
8716;SDS011;4395;48.554;8.820;2023-06-26T11:07:16;7.60;;;6.47;;
8716;SDS011;4395;48.554;8.820;2023-06-26T11:09:23;7.50;;;6.80;;
8716;SDS011;4395;48.554;8.820;2023-06-26T11:14:17;6.70;;;6.20;;
8716;SDS011;4395;48.554;8.820;2023-06-26T11:16:20;7.60;;;6.60;;
8716;SDS011;4395;48.554;8.820;2023-06-26T11:18:23;6.57;;;5.97;;
8716;SDS011;4395;48.554;8.820;2023-06-26T11:20:27;6.70;;;6.00;;
8716;SDS011;4395;48.554;8.820;2023-06-26T11:22:30;7.17;;;6.57;;
8716;SDS011;4395;48.554;8.820;2023-06-26T11:24:36;6.70;;;6.10;;
8716;SDS011;4395;48.554;8.820;2023-06-26T11:26:39;7.73;;;6.50;;
8716;SDS011;4395;48.554;8.820;2023-06-26T11:28:47;6.53;;;6.03;;
8716;SDS011;4395;48.554;8.820;2023-06-26T11:30:50;7.00;;;6.40;;
8716;SDS011;4395;48.554;8.820;2023-06-26T11:33:02;6.93;;;6.37;;
8716;SDS011;4395;48.554;8.820;2023-06-26T11:35:05;6.57;;;5.97;;
8716;SDS011;4395;48.554;8.820;2023-06-26T11:37:12;12.50;;;6.17;;
8716;SDS011;4395;48.554;8.820;2023-06-26T11:39:14;6.63;;;6.03;;
8716;SDS011;4395;48.554;8.820;2023-06-26T11:41:17;6.47;;;5.97;;
8716;SDS011;4395;48.554;8.820;2023-06-26T11:43:20;11.70;;;6.63;;
8716;SDS011;4395;48.554;8.820;2023-06-26T11:45:23;6.67;;;6.10;;
8716;SDS011;4395;48.554;8.820;2023-06-26T11:47:26;6.77;;;6.17;;
8716;SDS011;4395;48.554;8.820;2023-06-26T11:49:29;6.70;;;6.20;;
8716;SDS011;4395;48.554;8.820;2023-06-26T11:51:32;7.07;;;6.37;;
8716;SDS011;4395;48.554;8.820;2023-06-26T11:53:40;6.67;;;6.07;;
8716;SDS011;4395;48.554;8.820;2023-06-26T11:55:43;7.70;;;5.93;;
8716;SDS011;4395;48.554;8.820;2023-06-26T11:57:47;6.80;;;6.30;;
8716;SDS011;4395;48.554;8.820;2023-06-26T11:59:50;6.67;;;6.07;;
8716;SDS011;4395;48.554;8.820;2023-06-26T12:01:54;7.33;;;6.63;;
8716;SDS011;4395;48.554;8.820;2023-06-26T12:03:57;6.87;;;6.10;;
8716;SDS011;4395;48.554;8.820;2023-06-26T12:06:02;6.30;;;5.80;;
8716;SDS011;4395;48.554;8.820;2023-06-26T12:08:07;6.53;;;6.03;;
8716;SDS011;4395;48.554;8.820;2023-06-26T12:10:11;6.43;;;5.77;;
8716;SDS011;4395;48.554;8.820;2023-06-26T12:12:16;5.90;;;5.40;;
8716;SDS011;4395;48.554;8.820;2023-06-26T12:14:20;6.43;;;5.83;;
8716;SDS011;4395;48.554;8.820;2023-06-26T12:16:25;6.10;;;5.60;;
8716;SDS011;4395;48.554;8.820;2023-06-26T12:18:32;7.87;;;6.10;;
8716;SDS011;4395;48.554;8.820;2023-06-26T12:20:39;6.47;;;5.97;;
8716;SDS011;4395;48.554;8.820;2023-06-26T12:22:42;6.63;;;6.03;;
8716;SDS011;4395;48.554;8.820;2023-06-26T12:24:46;6.20;;;5.70;;
8716;SDS011;4395;48.554;8.820;2023-06-26T12:26:51;6.30;;;5.80;;
8716;SDS011;4395;48.554;8.820;2023-06-26T12:29:01;9.30;;;6.13;;
8716;SDS011;4395;48.554;8.820;2023-06-26T12:31:13;6.30;;;5.70;;
8716;SDS011;4395;48.554;8.820;2023-06-26T12:33:17;7.13;;;5.90;;
8716;SDS011;4395;48.554;8.820;2023-06-26T12:35:20;7.07;;;6.23;;
8716;SDS011;4395;48.554;8.820;2023-06-26T12:37:23;6.90;;;5.67;;
8716;SDS011;4395;48.554;8.820;2023-06-26T12:39:26;7.03;;;6.33;;
8716;SDS011;4395;48.554;8.820;2023-06-26T12:41:32;6.87;;;6.17;;
8716;SDS011;4395;48.554;8.820;2023-06-26T12:43:36;8.97;;;6.60;;
8716;SDS011;4395;48.554;8.820;2023-06-26T12:45:40;8.03;;;6.17;;
8716;SDS011;4395;48.554;8.820;2023-06-26T12:47:43;8.77;;;6.03;;
8716;SDS011;4395;48.554;8.820;2023-06-26T12:49:49;6.30;;;5.70;;
8716;SDS011;4395;48.554;8.820;2023-06-26T12:51:53;6.73;;;6.10;;
8716;SDS011;4395;48.554;8.820;2023-06-26T12:53:56;7.63;;;6.13;;